sensor_id;sensor_type;location;lat;lon;timestamp;pressure;altitude;pressure_sealevel;temperature;humidity
12879;BME280;20617;49.476;10.986;2023-04-30T00:01:27;98549.13;;;12.99;100.00
12879;BME280;20617;49.476;10.986;2023-04-30T00:03:32;98550.19;;;12.95;100.00
12879;BME280;20617;49.476;10.986;2023-04-30T00:05:37;98552.03;;;12.93;100.00
12879;BME280;20617;49.476;10.986;2023-04-30T00:07:44;98548.44;;;12.95;100.00
12879;BME280;20617;49.476;10.986;2023-04-30T00:09:49;98551.38;;;12.87;100.00
12879;BME280;20617;49.476;10.986;2023-04-30T00:11:54;98549.72;;;12.86;100.00
12879;BME280;20617;49.476;10.986;2023-04-30T00:13:59;98554.66;;;12.93;100.00
12879;BME280;20617;49.476;10.986;2023-04-30T00:16:07;98554.50;;;12.96;100.00
12879;BME280;20617;49.476;10.986;2023-04-30T00:18:12;98561.25;;;13.00;100.00
12879;BME280;20617;49.476;10.986;2023-04-30T00:20:17;98564.03;;;12.97;100.00
12879;BME280;20617;49.476;10.986;2023-04-30T00:22:22;98567.47;;;12.97;100.00
12879;BME280;20617;49.476;10.986;2023-04-30T00:24:27;98556.19;;;12.97;100.00
12879;BME280;20617;49.476;10.986;2023-04-30T00:26:32;98565.78;;;12.96;100.00
12879;BME280;20617;49.476;10.986;2023-04-30T00:28:37;98571.09;;;12.95;100.00
12879;BME280;20617;49.476;10.986;2023-04-30T00:30:44;98566.03;;;12.91;100.00
12879;BME280;20617;49.476;10.986;2023-04-30T00:32:52;98575.03;;;12.84;100.00
12879;BME280;20617;49.476;10.986;2023-04-30T00:34:57;98570.66;;;12.85;100.00
12879;BME280;20617;49.476;10.986;2023-04-30T00:37:02;98579.28;;;12.87;100.00
12879;BME280;20617;49.476;10.986;2023-04-30T00:39:07;98577.66;;;12.84;100.00
12879;BME280;20617;49.476;10.986;2023-04-30T00:41:15;98573.38;;;12.83;100.00
12879;BME280;20617;49.476;10.986;2023-04-30T00:43:19;98583.03;;;12.81;100.00
12879;BME280;20617;49.476;10.986;2023-04-30T00:45:24;98584.84;;;12.79;100.00
12879;BME280;20617;49.476;10.986;2023-04-30T00:47:29;98583.97;;;12.80;100.00
12879;BME280;20617;49.476;10.986;2023-04-30T00:49:37;98588.94;;;12.85;100.00
12879;BME280;20617;49.476;10.986;2023-04-30T00:51:42;98592.41;;;12.85;100.00
12879;BME280;20617;49.476;10.986;2023-04-30T00:53:48;98594.25;;;12.83;100.00
12879;BME280;20617;49.476;10.986;2023-04-30T00:55:53;98590.66;;;12.86;100.00
12879;BME280;20617;49.476;10.986;2023-04-30T00:57:59;98594.31;;;12.82;100.00
12879;BME280;20617;49.476;10.986;2023-04-30T01:00:06;98588.31;;;12.80;100.00
12879;BME280;20617;49.476;10.986;2023-04-30T01:02:12;98581.34;;;12.80;100.00
12879;BME280;20617;49.476;10.986;2023-04-30T01:04:18;98586.44;;;12.83;100.00
12879;BME280;20617;49.476;10.986;2023-04-30T01:06:26;98585.59;;;12.83;100.00
12879;BME280;20617;49.476;10.986;2023-04-30T01:08:32;98594.25;;;12.83;100.00
12879;BME280;20617;49.476;10.986;2023-04-30T01:10:43;98596.78;;;12.85;100.00
12879;BME280;20617;49.476;10.986;2023-04-30T01:12:55;98600.75;;;12.75;100.00
12879;BME280;20617;49.476;10.986;2023-04-30T01:15:07;98592.69;;;12.79;100.00
12879;BME280;20617;49.476;10.986;2023-04-30T01:17:19;98602.09;;;12.83;100.00
12879;BME280;20617;49.476;10.986;2023-04-30T01:19:35;98595.81;;;12.87;100.00
12879;BME280;20617;49.476;10.986;2023-04-30T01:21:44;98602.25;;;12.80;100.00
12879;BME280;20617;49.476;10.986;2023-04-30T01:24:11;98594.56;;;12.77;100.00
12879;BME280;20617;49.476;10.986;2023-04-30T01:26:32;98603.16;;;12.79;100.00
12879;BME280;20617;49.476;10.986;2023-04-30T01:28:49;98605.06;;;12.76;100.00
12879;BME280;20617;49.476;10.986;2023-04-30T01:30:55;98604.06;;;12.78;100.00
12879;BME280;20617;49.476;10.986;2023-04-30T01:33:01;98598.00;;;12.78;100.00
12879;BME280;20617;49.476;10.986;2023-04-30T01:35:06;98598.19;;;12.73;100.00
12879;BME280;20617;49.476;10.986;2023-04-30T01:37:19;98598.28;;;12.72;100.00
12879;BME280;20617;49.476;10.986;2023-04-30T01:39:38;98595.38;;;12.78;100.00
12879;BME280;20617;49.476;10.986;2023-04-30T01:41:55;98601.50;;;12.77;100.00
12879;BME280;20617;49.476;10.986;2023-04-30T01:44:16;98603.94;;;12.81;100.00
12879;BME280;20617;49.476;10.986;2023-04-30T01:46:26;98607.25;;;12.85;100.00
12879;BME280;20617;49.476;10.986;2023-04-30T01:48:39;98609.94;;;12.83;100.00
12879;BME280;20617;49.476;10.986;2023-04-30T01:50:50;98607.53;;;12.79;100.00
12879;BME280;20617;49.476;10.986;2023-04-30T01:52:58;98608.38;;;12.79;100.00
12879;BME280;20617;49.476;10.986;2023-04-30T01:55:07;98610.13;;;12.79;100.00
12879;BME280;20617;49.476;10.986;2023-04-30T01:57:18;98601.78;;;12.71;100.00
12879;BME280;20617;49.476;10.986;2023-04-30T01:59:27;98606.88;;;12.74;100.00
12879;BME280;20617;49.476;10.986;2023-04-30T02:01:32;98611.06;;;12.78;100.00
12879;BME280;20617;49.476;10.986;2023-04-30T02:03:37;98612.84;;;12.77;100.00
12879;BME280;20617;49.476;10.986;2023-04-30T02:05:43;98620.59;;;12.79;100.00
12879;BME280;20617;49.476;10.986;2023-04-30T02:07:48;98615.44;;;12.77;100.00
12879;BME280;20617;49.476;10.986;2023-04-30T02:09:53;98623.28;;;12.77;100.00
12879;BME280;20617;49.476;10.986;2023-04-30T02:11:58;98618.13;;;12.76;100.00
12879;BME280;20617;49.476;10.986;2023-04-30T02:14:04;98626.78;;;12.76;100.00
12879;BME280;20617;49.476;10.986;2023-04-30T02:16:12;98625.03;;;12.77;100.00
12879;BME280;20617;49.476;10.986;2023-04-30T02:18:17;98627.63;;;12.77;100.00
12879;BME280;20617;49.476;10.986;2023-04-30T02:20:22;98627.91;;;12.71;100.00
12879;BME280;20617;49.476;10.986;2023-04-30T02:22:27;98627.16;;;12.68;100.00
12879;BME280;20617;49.476;10.986;2023-04-30T02:24:32;98628.06;;;12.67;100.00
12879;BME280;20617;49.476;10.986;2023-04-30T02:26:37;98626.56;;;12.62;100.00
12879;BME280;20617;49.476;10.986;2023-04-30T02:28:44;98627.44;;;12.62;100.00
12879;BME280;20617;49.476;10.986;2023-04-30T02:30:49;98628.28;;;12.63;100.00
12879;BME280;20617;49.476;10.986;2023-04-30T02:32:57;98627.34;;;12.64;100.00
12879;BME280;20617;49.476;10.986;2023-04-30T02:35:04;98627.34;;;12.64;100.00
12879;BME280;20617;49.476;10.986;2023-04-30T02:37:09;98630.88;;;12.63;100.00
12879;BME280;20617;49.476;10.986;2023-04-30T02:39:14;98629.13;;;12.63;100.00
12879;BME280;20617;49.476;10.986;2023-04-30T02:41:19;98632.06;;;12.56;100.00
12879;BME280;20617;49.476;10.986;2023-04-30T02:43:25;98630.22;;;12.58;100.00
12879;BME280;20617;49.476;10.986;2023-04-30T02:45:30;98642.22;;;12.43;100.00
12879;BME280;20617;49.476;10.986;2023-04-30T02:47:35;98639.31;;;12.49;100.00
12879;BME280;20617;49.476;10.986;2023-04-30T02:49:44;98635.16;;;12.45;100.00
12879;BME280;20617;49.476;10.986;2023-04-30T02:51:49;98636.63;;;12.51;100.00
12879;BME280;20617;49.476;10.986;2023-04-30T02:53:54;98637.41;;;12.53;100.00
12879;BME280;20617;49.476;10.986;2023-04-30T02:55:59;98641.75;;;12.54;100.00
12879;BME280;20617;49.476;10.986;2023-04-30T02:58:04;98638.34;;;12.52;100.00
12879;BME280;20617;49.476;10.986;2023-04-30T03:00:10;98635.91;;;12.47;100.00
12879;BME280;20617;49.476;10.986;2023-04-30T03:02:15;98637.69;;;12.46;100.00
12879;BME280;20617;49.476;10.986;2023-04-30T03:04:22;98631.09;;;12.38;100.00
12879;BME280;20617;49.476;10.986;2023-04-30T03:06:30;98630.41;;;12.34;100.00
12879;BME280;20617;49.476;10.986;2023-04-30T03:08:35;98634.69;;;12.35;100.00
12879;BME280;20617;49.476;10.986;2023-04-30T03:10:40;98643.59;;;12.31;100.00
12879;BME280;20617;49.476;10.986;2023-04-30T03:12:45;98642.75;;;12.31;100.00
12879;BME280;20617;49.476;10.986;2023-04-30T03:14:52;98646.78;;;12.17;100.00
12879;BME280;20617;49.476;10.986;2023-04-30T03:16:56;98638.53;;;12.27;100.00
12879;BME280;20617;49.476;10.986;2023-04-30T03:19:02;98644.44;;;12.32;100.00
12879;BME280;20617;49.476;10.986;2023-04-30T03:21:07;98637.69;;;12.26;100.00
12879;BME280;20617;49.476;10.986;2023-04-30T03:23:14;98637.00;;;12.22;100.00
12879;BME280;20617;49.476;10.986;2023-04-30T03:25:19;98639.53;;;12.24;100.00
12879;BME280;20617;49.476;10.986;2023-04-30T03:27:24;98633.84;;;12.14;100.00
12879;BME280;20617;49.476;10.986;2023-04-30T03:29:29;98633.28;;;12.08;100.00
12879;BME280;20617;49.476;10.986;2023-04-30T03:31:34;98633.31;;;12.06;100.00
12879;BME280;20617;49.476;10.986;2023-04-30T03:33:39;98635.94;;;12.06;100.00
12879;BME280;20617;49.476;10.986;2023-04-30T03:35:44;98636.84;;;12.05;100.00
12879;BME280;20617;49.476;10.986;2023-04-30T03:37:50;98631.06;;;11.98;100.00
12879;BME280;20617;49.476;10.986;2023-04-30T03:39:58;98633.34;;;11.84;100.00
12879;BME280;20617;49.476;10.986;2023-04-30T03:42:03;98635.00;;;11.87;100.00
12879;BME280;20617;49.476;10.986;2023-04-30T03:44:07;98639.53;;;11.82;100.00
12879;BME280;20617;49.476;10.986;2023-04-30T03:46:16;98644.75;;;11.82;100.00
12879;BME280;20617;49.476;10.986;2023-04-30T03:48:22;98635.91;;;11.86;100.00
12879;BME280;20617;49.476;10.986;2023-04-30T03:50:28;98646.19;;;11.90;100.00
12879;BME280;20617;49.476;10.986;2023-04-30T03:52:33;98642.81;;;11.87;100.00
12879;BME280;20617;49.476;10.986;2023-04-30T03:54:38;98641.66;;;11.72;100.00
12879;BME280;20617;49.476;10.986;2023-04-30T03:56:45;98646.81;;;11.73;100.00
12879;BME280;20617;49.476;10.986;2023-04-30T03:58:50;98636.09;;;11.81;100.00
12879;BME280;20617;49.476;10.986;2023-04-30T04:00:55;98641.09;;;11.87;100.00
12879;BME280;20617;49.476;10.986;2023-04-30T04:03:01;98639.38;;;11.86;100.00
12879;BME280;20617;49.476;10.986;2023-04-30T04:05:06;98638.91;;;11.75;100.00
12879;BME280;20617;49.476;10.986;2023-04-30T04:07:12;98641.31;;;11.81;100.00
12879;BME280;20617;49.476;10.986;2023-04-30T04:09:17;98641.09;;;11.87;100.00
12879;BME280;20617;49.476;10.986;2023-04-30T04:11:22;98638.34;;;11.90;100.00
12879;BME280;20617;49.476;10.986;2023-04-30T04:13:30;98644.59;;;11.86;100.00
12879;BME280;20617;49.476;10.986;2023-04-30T04:15:36;98648.69;;;11.92;100.00
12879;BME280;20617;49.476;10.986;2023-04-30T04:17:43;98646.75;;;11.97;100.00
12879;BME280;20617;49.476;10.986;2023-04-30T04:19:48;98651.72;;;12.03;100.00
12879;BME280;20617;49.476;10.986;2023-04-30T04:21:53;98645.41;;;12.09;100.00
12879;BME280;20617;49.476;10.986;2023-04-30T04:23:59;98648.84;;;12.09;100.00
12879;BME280;20617;49.476;10.986;2023-04-30T04:26:09;98653.41;;;12.04;100.00
12879;BME280;20617;49.476;10.986;2023-04-30T04:28:14;98651.47;;;12.09;100.00
12879;BME280;20617;49.476;10.986;2023-04-30T04:30:21;98653.09;;;12.12;100.00
12879;BME280;20617;49.476;10.986;2023-04-30T04:32:27;98648.84;;;12.09;100.00
12879;BME280;20617;49.476;10.986;2023-04-30T04:34:33;98647.97;;;12.10;100.00
12879;BME280;20617;49.476;10.986;2023-04-30T04:36:39;98657.47;;;12.11;100.00
12879;BME280;20617;49.476;10.986;2023-04-30T04:38:45;98658.72;;;12.03;100.00
12879;BME280;20617;49.476;10.986;2023-04-30T04:40:50;98658.63;;;12.04;100.00
12879;BME280;20617;49.476;10.986;2023-04-30T04:42:57;98661.31;;;12.03;100.00
12879;BME280;20617;49.476;10.986;2023-04-30T04:45:04;98661.19;;;12.06;100.00
12879;BME280;20617;49.476;10.986;2023-04-30T04:47:12;98662.16;;;12.03;100.00
12879;BME280;20617;49.476;10.986;2023-04-30T04:49:17;98664.59;;;12.08;100.00
12879;BME280;20617;49.476;10.986;2023-04-30T04:51:22;98661.91;;;12.09;100.00
12879;BME280;20617;49.476;10.986;2023-04-30T04:53:28;98663.41;;;12.15;100.00
12879;BME280;20617;49.476;10.986;2023-04-30T04:55:35;98655.41;;;12.19;100.00
12879;BME280;20617;49.476;10.986;2023-04-30T04:57:43;98660.34;;;12.26;100.00
12879;BME280;20617;49.476;10.986;2023-04-30T04:59:48;98662.75;;;12.30;100.00
12879;BME280;20617;49.476;10.986;2023-04-30T05:01:54;98669.41;;;12.37;100.00
12879;BME280;20617;49.476;10.986;2023-04-30T05:04:02;98661.28;;;12.45;100.00
12879;BME280;20617;49.476;10.986;2023-04-30T05:06:09;98663.28;;;12.38;100.00
12879;BME280;20617;49.476;10.986;2023-04-30T05:08:14;98666.09;;;12.34;100.00
12879;BME280;20617;49.476;10.986;2023-04-30T05:10:19;98667.75;;;12.36;100.00
12879;BME280;20617;49.476;10.986;2023-04-30T05:12:23;98663.28;;;12.38;100.00
12879;BME280;20617;49.476;10.986;2023-04-30T05:14:28;98665.72;;;12.43;100.00
12879;BME280;20617;49.476;10.986;2023-04-30T05:16:33;98664.78;;;12.44;100.00
12879;BME280;20617;49.476;10.986;2023-04-30T05:18:38;98669.47;;;12.36;100.00
12879;BME280;20617;49.476;10.986;2023-04-30T05:20:46;98666.81;;;12.37;100.00
12879;BME280;20617;49.476;10.986;2023-04-30T05:22:51;98666.69;;;12.40;100.00
12879;BME280;20617;49.476;10.986;2023-04-30T05:24:56;98671.78;;;12.43;100.00
12879;BME280;20617;49.476;10.986;2023-04-30T05:27:01;98672.75;;;12.41;100.00
12879;BME280;20617;49.476;10.986;2023-04-30T05:29:06;98665.75;;;12.41;100.00
12879;BME280;20617;49.476;10.986;2023-04-30T05:31:11;98672.63;;;12.44;100.00
12879;BME280;20617;49.476;10.986;2023-04-30T05:33:16;98665.84;;;12.40;100.00
12879;BME280;20617;49.476;10.986;2023-04-30T05:35:21;98673.31;;;12.48;100.00
12879;BME280;20617;49.476;10.986;2023-04-30T05:37:28;98669.69;;;12.52;100.00
12879;BME280;20617;49.476;10.986;2023-04-30T05:39:33;98675.47;;;12.58;100.00
12879;BME280;20617;49.476;10.986;2023-04-30T05:41:38;98677.38;;;12.55;100.00
12879;BME280;20617;49.476;10.986;2023-04-30T05:43:43;98679.06;;;12.56;100.00
12879;BME280;20617;49.476;10.986;2023-04-30T05:45:48;98677.91;;;12.63;100.00
12879;BME280;20617;49.476;10.986;2023-04-30T05:47:53;98678.34;;;12.73;100.00
12879;BME280;20617;49.476;10.986;2023-04-30T05:49:58;98670.31;;;12.77;100.00
12879;BME280;20617;49.476;10.986;2023-04-30T05:52:04;98681.59;;;12.78;100.00
12879;BME280;20617;49.476;10.986;2023-04-30T05:54:11;98670.09;;;12.82;100.00
12879;BME280;20617;49.476;10.986;2023-04-30T05:56:16;98671.19;;;12.76;100.00
12879;BME280;20617;49.476;10.986;2023-04-30T05:58:21;98669.28;;;12.80;100.00
12879;BME280;20617;49.476;10.986;2023-04-30T06:00:26;98659.91;;;12.76;100.00
12879;BME280;20617;49.476;10.986;2023-04-30T06:02:32;98668.31;;;12.82;100.00
12879;BME280;20617;49.476;10.986;2023-04-30T06:04:37;98668.91;;;12.89;100.00
12879;BME280;20617;49.476;10.986;2023-04-30T06:06:44;98665.50;;;12.87;100.00
12879;BME280;20617;49.476;10.986;2023-04-30T06:08:49;98670.94;;;12.82;100.00
12879;BME280;20617;49.476;10.986;2023-04-30T06:10:57;98664.72;;;12.85;100.00
12879;BME280;20617;49.476;10.986;2023-04-30T06:13:05;98670.16;;;12.80;100.00
12879;BME280;20617;49.476;10.986;2023-04-30T06:15:10;98668.59;;;12.76;100.00
12879;BME280;20617;49.476;10.986;2023-04-30T06:17:15;98673.53;;;12.63;100.00
12879;BME280;20617;49.476;10.986;2023-04-30T06:19:20;98676.59;;;12.53;100.00
12879;BME280;20617;49.476;10.986;2023-04-30T06:21:25;98673.09;;;12.54;100.00
12879;BME280;20617;49.476;10.986;2023-04-30T06:23:30;98675.78;;;12.51;100.00
12879;BME280;20617;49.476;10.986;2023-04-30T06:25:35;98674.38;;;12.43;100.00
12879;BME280;20617;49.476;10.986;2023-04-30T06:27:42;98666.69;;;12.40;100.00
12879;BME280;20617;49.476;10.986;2023-04-30T06:29:47;98670.22;;;12.39;100.00
12879;BME280;20617;49.476;10.986;2023-04-30T06:31:52;98666.50;;;12.45;100.00
12879;BME280;20617;49.476;10.986;2023-04-30T06:33:57;98667.91;;;12.52;100.00
12879;BME280;20617;49.476;10.986;2023-04-30T06:36:03;98671.19;;;12.57;100.00
12879;BME280;20617;49.476;10.986;2023-04-30T06:38:08;98665.16;;;12.55;100.00
12879;BME280;20617;49.476;10.986;2023-04-30T06:40:13;98665.47;;;12.68;100.00
12879;BME280;20617;49.476;10.986;2023-04-30T06:42:18;98661.53;;;12.78;100.00
12879;BME280;20617;49.476;10.986;2023-04-30T06:44:26;98662.91;;;12.87;100.00
12879;BME280;20617;49.476;10.986;2023-04-30T06:46:32;98654.88;;;12.91;100.00
12879;BME280;20617;49.476;10.986;2023-04-30T06:48:37;98656.13;;;13.02;100.00
12879;BME280;20617;49.476;10.986;2023-04-30T06:50:45;98653.66;;;12.99;100.00
12879;BME280;20617;49.476;10.986;2023-04-30T06:52:50;98655.69;;;13.11;100.00
12879;BME280;20617;49.476;10.986;2023-04-30T06:54:55;98659.47;;;13.24;100.00
12879;BME280;20617;49.476;10.986;2023-04-30T06:57:00;98648.88;;;13.27;100.00
12879;BME280;20617;49.476;10.986;2023-04-30T06:59:05;98656.59;;;13.30;100.00
12879;BME280;20617;49.476;10.986;2023-04-30T07:01:12;98655.50;;;13.34;100.00
12879;BME280;20617;49.476;10.986;2023-04-30T07:03:17;98655.38;;;13.38;100.00
12879;BME280;20617;49.476;10.986;2023-04-30T07:05:22;98652.00;;;13.35;100.00
12879;BME280;20617;49.476;10.986;2023-04-30T07:07:27;98650.91;;;13.40;100.00
12879;BME280;20617;49.476;10.986;2023-04-30T07:09:33;98653.19;;;13.28;100.00
12879;BME280;20617;49.476;10.986;2023-04-30T07:11:38;98649.25;;;13.39;100.00
12879;BME280;20617;49.476;10.986;2023-04-30T07:13:46;98654.31;;;13.42;100.00
12879;BME280;20617;49.476;10.986;2023-04-30T07:15:51;98651.63;;;13.43;100.00
12879;BME280;20617;49.476;10.986;2023-04-30T07:17:58;98655.50;;;13.53;100.00
12879;BME280;20617;49.476;10.986;2023-04-30T07:20:08;98663.00;;;13.42;100.00
12879;BME280;20617;49.476;10.986;2023-04-30T07:22:14;98661.09;;;13.46;100.00
12879;BME280;20617;49.476;10.986;2023-04-30T07:24:18;98662.56;;;13.51;100.00
12879;BME280;20617;49.476;10.986;2023-04-30T07:26:23;98659.94;;;13.51;100.00
12879;BME280;20617;49.476;10.986;2023-04-30T07:28:28;98661.06;;;13.65;100.00
12879;BME280;20617;49.476;10.986;2023-04-30T07:30:33;98658.91;;;13.73;100.00
12879;BME280;20617;49.476;10.986;2023-04-30T07:32:38;98662.41;;;13.73;100.00
12879;BME280;20617;49.476;10.986;2023-04-30T07:34:47;98660.22;;;13.81;100.00
12879;BME280;20617;49.476;10.986;2023-04-30T07:36:53;98658.09;;;13.90;100.00
12879;BME280;20617;49.476;10.986;2023-04-30T07:38:58;98662.28;;;13.94;100.00
12879;BME280;20617;49.476;10.986;2023-04-30T07:41:03;98657.50;;;13.85;100.00
12879;BME280;20617;49.476;10.986;2023-04-30T07:43:09;98657.78;;;13.96;100.00
12879;BME280;20617;49.476;10.986;2023-04-30T07:45:14;98661.34;;;13.95;100.00
12879;BME280;20617;49.476;10.986;2023-04-30T07:47:18;98657.19;;;13.91;100.00
12879;BME280;20617;49.476;10.986;2023-04-30T07:49:24;98657.03;;;13.94;100.00
12879;BME280;20617;49.476;10.986;2023-04-30T07:51:32;98642.97;;;13.96;100.00
12879;BME280;20617;49.476;10.986;2023-04-30T07:53:37;98658.25;;;14.04;100.00
12879;BME280;20617;49.476;10.986;2023-04-30T07:55:43;98645.00;;;14.07;100.00
12879;BME280;20617;49.476;10.986;2023-04-30T07:57:48;98649.34;;;14.08;100.00
12879;BME280;20617;49.476;10.986;2023-04-30T07:59:53;98647.41;;;14.12;100.00
12879;BME280;20617;49.476;10.986;2023-04-30T08:01:58;98648.94;;;14.16;100.00
12879;BME280;20617;49.476;10.986;2023-04-30T08:04:03;98647.00;;;14.19;100.00
12879;BME280;20617;49.476;10.986;2023-04-30T08:06:08;98648.31;;;14.11;100.00
12879;BME280;20617;49.476;10.986;2023-04-30T08:08:15;98647.25;;;14.32;100.00
12879;BME280;20617;49.476;10.986;2023-04-30T08:10:20;98644.25;;;14.40;100.00
12879;BME280;20617;49.476;10.986;2023-04-30T08:12:25;98641.59;;;14.57;100.00
12879;BME280;20617;49.476;10.986;2023-04-30T08:14:31;98636.09;;;14.79;100.00
12879;BME280;20617;49.476;10.986;2023-04-30T08:16:37;98633.34;;;14.98;100.00
12879;BME280;20617;49.476;10.986;2023-04-30T08:18:44;98636.47;;;15.21;100.00
12879;BME280;20617;49.476;10.986;2023-04-30T08:20:49;98624.91;;;15.25;100.00
12879;BME280;20617;49.476;10.986;2023-04-30T08:22:54;98631.50;;;15.32;100.00
12879;BME280;20617;49.476;10.986;2023-04-30T08:25:02;98631.91;;;15.40;100.00
12879;BME280;20617;49.476;10.986;2023-04-30T08:27:06;98627.69;;;15.53;100.00
12879;BME280;20617;49.476;10.986;2023-04-30T08:29:11;98624.78;;;15.58;100.00
12879;BME280;20617;49.476;10.986;2023-04-30T08:31:16;98620.66;;;15.70;100.00
12879;BME280;20617;49.476;10.986;2023-04-30T08:33:20;98617.00;;;15.72;100.00
12879;BME280;20617;49.476;10.986;2023-04-30T08:35:25;98617.78;;;15.74;97.53
12879;BME280;20617;49.476;10.986;2023-04-30T08:37:30;98615.22;;;15.73;98.82
12879;BME280;20617;49.476;10.986;2023-04-30T08:39:35;98622.31;;;15.87;97.42
12879;BME280;20617;49.476;10.986;2023-04-30T08:41:42;98614.91;;;15.93;84.67
12879;BME280;20617;49.476;10.986;2023-04-30T08:43:50;98619.63;;;16.02;84.10
12879;BME280;20617;49.476;10.986;2023-04-30T08:45:55;98617.22;;;16.14;88.17
12879;BME280;20617;49.476;10.986;2023-04-30T08:48:02;98616.47;;;16.12;81.05
12879;BME280;20617;49.476;10.986;2023-04-30T08:50:07;98617.13;;;16.15;84.22
12879;BME280;20617;49.476;10.986;2023-04-30T08:52:13;98617.34;;;16.26;85.78
12879;BME280;20617;49.476;10.986;2023-04-30T08:54:18;98618.94;;;16.43;82.04
12879;BME280;20617;49.476;10.986;2023-04-30T08:56:22;98614.84;;;16.53;85.70
12879;BME280;20617;49.476;10.986;2023-04-30T08:58:30;98612.78;;;16.59;90.24
12879;BME280;20617;49.476;10.986;2023-04-30T09:00:34;98618.13;;;16.57;94.16
12879;BME280;20617;49.476;10.986;2023-04-30T09:02:41;98617.66;;;16.50;92.84
12879;BME280;20617;49.476;10.986;2023-04-30T09:04:46;98617.38;;;16.55;90.98
12879;BME280;20617;49.476;10.986;2023-04-30T09:06:51;98620.38;;;16.49;88.34
12879;BME280;20617;49.476;10.986;2023-04-30T09:09:07;98624.22;;;16.72;89.97
12879;BME280;20617;49.476;10.986;2023-04-30T09:11:22;98617.13;;;16.88;87.93
12879;BME280;20617;49.476;10.986;2023-04-30T09:13:38;98617.22;;;16.87;82.37
12879;BME280;20617;49.476;10.986;2023-04-30T09:15:43;98615.34;;;16.89;84.90
12879;BME280;20617;49.476;10.986;2023-04-30T09:17:48;98617.59;;;16.95;86.38
12879;BME280;20617;49.476;10.986;2023-04-30T09:19:53;98621.81;;;16.97;87.12
12879;BME280;20617;49.476;10.986;2023-04-30T09:21:58;98629.81;;;16.96;87.95
12879;BME280;20617;49.476;10.986;2023-04-30T09:24:03;98624.16;;;16.73;86.03
12879;BME280;20617;49.476;10.986;2023-04-30T09:26:08;98617.69;;;16.79;86.38
12879;BME280;20617;49.476;10.986;2023-04-30T09:28:21;98622.19;;;16.77;82.87
12879;BME280;20617;49.476;10.986;2023-04-30T09:30:33;98620.38;;;16.63;82.68
12879;BME280;20617;49.476;10.986;2023-04-30T09:32:46;98616.25;;;16.73;84.68
12879;BME280;20617;49.476;10.986;2023-04-30T09:34:58;98615.16;;;16.78;85.21
12879;BME280;20617;49.476;10.986;2023-04-30T09:37:02;98613.16;;;16.81;86.03
12879;BME280;20617;49.476;10.986;2023-04-30T09:39:08;98610.00;;;16.76;82.18
12879;BME280;20617;49.476;10.986;2023-04-30T09:41:23;98608.09;;;16.78;83.29
12879;BME280;20617;49.476;10.986;2023-04-30T09:43:29;98608.56;;;16.70;76.84
12879;BME280;20617;49.476;10.986;2023-04-30T09:45:43;98615.78;;;16.81;75.97
12879;BME280;20617;49.476;10.986;2023-04-30T09:47:51;98606.03;;;16.83;69.12
12879;BME280;20617;49.476;10.986;2023-04-30T09:50:06;98604.94;;;16.87;71.50
12879;BME280;20617;49.476;10.986;2023-04-30T09:52:11;98610.72;;;16.78;74.26
12879;BME280;20617;49.476;10.986;2023-04-30T09:54:16;98609.41;;;16.71;79.83
12879;BME280;20617;49.476;10.986;2023-04-30T09:56:23;98610.63;;;16.65;80.94
12879;BME280;20617;49.476;10.986;2023-04-30T09:58:27;98607.53;;;16.73;82.33
12879;BME280;20617;49.476;10.986;2023-04-30T10:00:33;98609.78;;;16.65;84.26
12879;BME280;20617;49.476;10.986;2023-04-30T10:02:41;98607.75;;;16.25;85.59
12879;BME280;20617;49.476;10.986;2023-04-30T10:04:47;98606.34;;;16.20;84.53
12879;BME280;20617;49.476;10.986;2023-04-30T10:06:52;98606.81;;;16.12;82.16
12879;BME280;20617;49.476;10.986;2023-04-30T10:09:01;98602.78;;;16.06;80.12
12879;BME280;20617;49.476;10.986;2023-04-30T10:11:06;98599.38;;;16.04;78.73
12879;BME280;20617;49.476;10.986;2023-04-30T10:13:14;98593.31;;;16.18;78.50
12879;BME280;20617;49.476;10.986;2023-04-30T10:15:23;98582.34;;;16.26;78.78
12879;BME280;20617;49.476;10.986;2023-04-30T10:17:29;98580.84;;;16.36;78.79
12879;BME280;20617;49.476;10.986;2023-04-30T10:19:41;98575.41;;;16.39;77.85
12879;BME280;20617;49.476;10.986;2023-04-30T10:21:48;98582.91;;;16.45;78.39
12879;BME280;20617;49.476;10.986;2023-04-30T10:23:53;98583.09;;;16.42;76.06
12879;BME280;20617;49.476;10.986;2023-04-30T10:25:58;98580.22;;;16.47;75.81
12879;BME280;20617;49.476;10.986;2023-04-30T10:28:03;98593.16;;;16.64;75.43
12879;BME280;20617;49.476;10.986;2023-04-30T10:30:09;98576.81;;;16.73;73.36
12879;BME280;20617;49.476;10.986;2023-04-30T10:32:13;98577.22;;;16.82;72.77
12879;BME280;20617;49.476;10.986;2023-04-30T10:34:21;98569.69;;;16.90;73.52
12879;BME280;20617;49.476;10.986;2023-04-30T10:36:35;98564.06;;;16.96;73.27
12879;BME280;20617;49.476;10.986;2023-04-30T10:38:45;98575.41;;;16.96;74.74
12879;BME280;20617;49.476;10.986;2023-04-30T10:40:50;98578.75;;;17.13;75.39
12879;BME280;20617;49.476;10.986;2023-04-30T10:42:55;98569.41;;;17.22;73.88
12879;BME280;20617;49.476;10.986;2023-04-30T10:45:00;98570.34;;;17.35;74.27
12879;BME280;20617;49.476;10.986;2023-04-30T10:47:08;98570.91;;;17.53;74.26
12879;BME280;20617;49.476;10.986;2023-04-30T10:49:13;98577.78;;;17.55;74.10
12879;BME280;20617;49.476;10.986;2023-04-30T10:51:18;98575.69;;;17.60;71.64
12879;BME280;20617;49.476;10.986;2023-04-30T10:53:29;98570.31;;;17.62;70.26
12879;BME280;20617;49.476;10.986;2023-04-30T10:55:37;98565.03;;;17.49;69.84